Time;durP1;ratioP1;P1;durP2;ratioP2;P2;SDS_P1;SDS_P2;PMS_P1;PMS_P2;Temp;Humidity;BMP_temperature;BMP_pressure;BME280_temperature;BME280_humidity;BME280_pressure;Samples;Min_cycle;Max_cycle;Signal;HPM_P1;HPM_P2
2021/12/06 00:01:45;;;;;;;49.98;25.43;;;;;;;-0.20;85.12;100355.63;1722195;82;20510;-75
2021/12/06 00:04:17;;;;;;;46.33;24.75;;;;;;;-0.19;85.08;100357.77;1744434;81;22140;-75
2021/12/06 00:06:48;;;;;;;51.92;26.52;;;;;;;-0.20;85.08;100350.55;1718818;81;21049;-76
2021/12/06 00:09:21;;;;;;;55.15;27.73;;;;;;;-0.21;85.07;100351.38;1728029;82;21553;-76
2021/12/06 00:11:56;;;;;;;48.55;25.52;;;;;;;-0.21;85.11;100341.22;1721375;81;21515;-76
2021/12/06 00:14:17;;;;;;;49.50;25.97;;;;;;;-0.21;85.12;100336.55;1709333;82;21501;-76
2021/12/06 00:16:43;;;;;;;53.68;27.62;;;;;;;-0.21;85.09;100347.98;1731182;81;21429;-76
2021/12/06 00:19:10;;;;;;;53.87;28.27;;;;;;;-0.18;85.16;100350.59;1679812;84;21112;-75
2021/12/06 00:21:36;;;;;;;48.35;26.40;;;;;;;-0.18;85.12;100347.64;1734686;81;20962;-75
2021/12/06 00:24:02;;;;;;;52.55;26.90;;;;;;;-0.17;85.13;100353.17;1711703;81;21096;-75
2021/12/06 00:26:29;;;;;;;;;;;;;;;-0.16;85.14;100344.72;1739098;81;20962;-75
2021/12/06 00:28:58;;;;;;;50.50;25.57;;;;;;;-0.16;85.19;100351.48;1707004;82;24217;-76
2021/12/06 00:31:31;;;;;;;49.77;25.88;;;;;;;-0.14;85.17;100361.27;1729478;81;22211;-76
2021/12/06 00:34:00;;;;;;;49.23;25.60;;;;;;;-0.12;85.16;100358.36;1714123;81;21096;-76
2021/12/06 00:36:28;;;;;;;52.25;28.20;;;;;;;-0.10;85.17;100353.75;1720346;81;20941;-76
2021/12/06 00:38:53;;;;;;;52.58;25.30;;;;;;;-0.10;85.17;100353.75;1709994;82;21484;-76
2021/12/06 00:41:20;;;;;;;48.95;26.23;;;;;;;-0.07;85.19;100358.91;1730193;80;21461;-76
2021/12/06 00:43:47;;;;;;;49.83;26.40;;;;;;;-0.06;85.17;100358.08;1704923;82;21520;-76
2021/12/06 00:46:14;;;;;;;54.05;28.55;;;;;;;-0.06;85.17;100363.16;1728095;81;21322;-76
2021/12/06 00:48:44;;;;;;;48.98;27.27;;;;;;;-0.04;85.18;100363.20;1734453;81;21024;-76
2021/12/06 00:51:11;;;;;;;50.15;26.27;;;;;;;-0.03;85.16;100367.05;1737760;81;21521;-76
2021/12/06 00:53:38;;;;;;;48.38;26.75;;;;;;;-0.02;85.18;100372.98;1725738;82;21398;-76
2021/12/06 00:56:11;;;;;;;47.48;24.98;;;;;;;0.00;85.19;100379.80;1726687;80;21032;-76
2021/12/06 00:58:38;;;;;;;51.53;27.55;;;;;;;0.03;85.19;100378.14;1706509;82;20886;-76
2021/12/06 01:01:06;;;;;;;;;;;;;;;0.04;85.17;100383.67;1713172;82;20966;-76
2021/12/06 01:03:41;;;;;;;41.15;23.87;;;;;;;0.04;85.20;100386.22;1733539;81;20117;-76
2021/12/06 01:06:11;;;;;;;51.53;26.02;;;;;;;0.03;85.16;100387.90;1719506;81;20888;-76
2021/12/06 01:08:38;;;;;;;49.10;26.57;;;;;;;0.04;85.16;100389.62;1724065;81;20871;-76
2021/12/06 01:11:09;;;;;;;50.52;25.37;;;;;;;0.04;85.18;100384.53;1736438;82;20969;-76
2021/12/06 01:13:37;;;;;;;48.02;26.15;;;;;;;0.05;85.20;100395.15;1726795;80;21699;-76
2021/12/06 01:16:06;;;;;;;43.65;23.83;;;;;;;0.06;85.18;100389.24;1708747;81;20906;-76
2021/12/06 01:18:39;;;;;;;42.27;23.50;;;;;;;0.07;85.18;100394.77;1730344;80;20934;-76
2021/12/06 01:21:27;;;;;;;42.70;23.47;;;;;;;0.10;85.19;100394.84;1736401;81;20856;-76
2021/12/06 01:23:55;;;;;;;37.38;22.95;;;;;;;0.13;85.22;100400.41;1730309;81;20984;-77
2021/12/06 01:31:50;;;;;;;34.50;20.62;;;;;;;0.21;85.21;100395.94;1717511;82;21050;-76
2021/12/06 01:39:41;;;;;;;39.25;21.00;;;;;;;0.28;85.16;100396.52;1720169;82;21675;-76
2021/12/06 01:42:08;;;;;;;38.28;21.17;;;;;;;0.30;85.18;100394.88;1710047;81;26549;-76
2021/12/06 01:44:42;;;;;;;37.28;20.62;;;;;;;0.31;85.16;100400.41;1706911;82;21036;-76
2021/12/06 01:47:14;;;;;;;35.80;19.62;;;;;;;0.31;85.15;100395.32;1720571;81;21013;-76
2021/12/06 01:49:57;;;;;;;36.08;19.67;;;;;;;0.33;85.11;100392.81;1722886;82;20961;-76
2021/12/06 01:52:32;;;;;;;34.43;19.87;;;;;;;0.34;85.15;100394.53;1732357;81;21129;-76
2021/12/06 01:55:04;;;;;;;34.70;19.42;;;;;;;0.36;85.11;100399.64;1742702;80;21076;-76
2021/12/06 01:57:31;;;;;;;33.98;18.77;;;;;;;0.37;85.10;100409.00;1722408;81;21037;-76
2021/12/06 01:59:58;;;;;;;31.90;19.00;;;;;;;0.38;85.13;100408.17;1735197;82;21493;-76
2021/12/06 02:02:27;;;;;;;34.78;18.07;;;;;;;0.38;85.09;100411.98;1736997;80;21021;-76
2021/12/06 02:04:54;;;;;;;35.28;20.57;;;;;;;0.39;85.12;100422.19;1727856;80;21035;-76
2021/12/06 02:07:25;;;;;;;32.98;18.73;;;;;;;0.41;85.10;100424.36;1741004;82;20962;-76
2021/12/06 02:09:54;;;;;;;34.55;19.85;;;;;;;0.40;85.05;100419.23;1714895;82;21608;-75
2021/12/06 02:12:20;;;;;;;33.42;19.52;;;;;;;0.38;85.04;100420.47;1730960;81;21084;-76
2021/12/06 02:17:22;;;;;;;;;;;;;;;0.37;85.06;100417.89;1742276;82;21104;-76
2021/12/06 02:19:50;;;;;;;37.05;19.90;;;;;;;0.35;85.04;100418.27;1739829;80;20130;-76
2021/12/06 02:22:23;;;;;;;35.83;20.48;;;;;;;0.35;85.03;100424.63;1716836;81;20925;-76
2021/12/06 02:24:53;;;;;;;33.35;18.57;;;;;;;0.33;85.09;100425.45;1743690;80;20968;-76
2021/12/06 02:27:24;;;;;;;33.28;19.37;;;;;;;0.32;85.07;100426.28;1730618;80;21428;-76
2021/12/06 02:29:53;;;;;;;33.75;19.62;;;;;;;0.33;85.11;100429.27;1748904;81;21032;-76
2021/12/06 02:32:20;;;;;;;34.43;19.07;;;;;;;0.34;85.11;100427.59;1731732;80;21383;-76
2021/12/06 02:34:51;;;;;;;37.10;21.10;;;;;;;0.32;85.10;100426.28;1732439;80;21024;-76
2021/12/06 02:37:23;;;;;;;31.95;19.15;;;;;;;0.30;85.08;100426.66;1733144;81;21117;-76
2021/12/06 02:39:51;;;;;;;40.78;20.57;;;;;;;0.28;85.06;100432.12;1731329;82;21348;-76
2021/12/06 02:42:18;;;;;;;38.42;20.97;;;;;;;0.27;85.06;100437.17;1743342;80;21302;-76
2021/12/06 02:44:46;;;;;;;35.20;18.07;;;;;;;0.25;85.09;100435.87;1626285;81;10000543;-76
2021/12/06 02:47:15;;;;;;;39.30;21.45;;;;;;;0.23;85.09;100438.79;1742111;81;20906;-76
2021/12/06 02:49:41;;;;;;;33.75;18.50;;;;;;;0.19;85.05;100443.36;1744911;80;20934;-76
2021/12/06 02:52:14;;;;;;;36.03;20.35;;;;;;;0.16;85.05;100444.97;1737913;80;21055;-76
2021/12/06 02:54:42;;;;;;;38.25;20.23;;;;;;;0.13;85.10;100447.44;1734179;81;21017;-76
2021/12/06 02:59:44;;;;;;;35.20;20.62;;;;;;;0.07;85.09;100450.70;1705993;82;21386;-76
2021/12/06 03:02:17;;;;;;;40.20;20.65;;;;;;;0.04;85.08;100451.89;1721962;82;20887;-76
2021/12/06 03:04:43;;;;;;;40.92;21.70;;;;;;;0.00;85.07;100456.48;1607769;81;10000795;-76
2021/12/06 03:07:10;;;;;;;38.73;21.70;;;;;;;-0.15;85.09;100437.05;1725346;81;26716;-76
2021/12/06 03:09:40;;;;;;;37.42;21.85;;;;;;;-0.15;85.09;100437.05;1709033;82;20958;-76
2021/12/06 03:12:17;;;;;;;42.05;22.45;;;;;;;-0.07;85.11;100460.56;1720067;81;20898;-76
2021/12/06 03:14:48;;;;;;;36.98;19.87;;;;;;;-0.09;85.14;100467.29;1716729;81;20903;-76
2021/12/06 03:17:18;;;;;;;36.60;21.77;;;;;;;-0.09;85.18;100471.52;1730594;81;21021;-76
2021/12/06 03:19:45;;;;;;;38.17;20.97;;;;;;;-0.09;85.20;100471.10;1726106;81;21496;-76
2021/12/06 03:22:15;;;;;;;36.98;21.52;;;;;;;-0.08;85.22;100475.77;1707785;82;21096;-76
2021/12/06 03:24:43;;;;;;;39.78;22.52;;;;;;;-0.08;85.18;100476.63;1718798;82;21478;-76
2021/12/06 03:27:14;;;;;;;38.90;21.60;;;;;;;-0.07;85.22;100484.70;1717797;81;21616;-76
2021/12/06 03:29:40;;;;;;;39.18;21.57;;;;;;;-0.05;85.22;100488.55;1724308;81;21020;-76
2021/12/06 03:32:07;;;;;;;;;;;;;;;-0.06;85.21;100485.16;1727726;82;21145;-76
2021/12/06 03:34:34;;;;;;;40.55;19.50;;;;;;;-0.03;85.24;100493.27;1734356;80;20156;-76
2021/12/06 03:37:03;;;;;;;;;;;;;;;-0.03;85.21;100495.80;1728512;82;21096;-76
2021/12/06 03:39:37;;;;;;;36.60;19.95;;;;;;;0.00;85.28;100495.88;1713236;82;20203;-76
2021/12/06 03:42:08;;;;;;;35.10;20.62;;;;;;;0.02;85.26;100500.97;1725813;81;21088;-76
2021/12/06 03:44:36;;;;;;;39.25;20.10;;;;;;;0.03;85.23;100500.15;1706639;81;21112;-76
2021/12/06 03:47:08;;;;;;;38.13;21.75;;;;;;;0.04;85.24;100504.41;1707654;82;21470;-76
2021/12/06 03:49:37;;;;;;;38.05;20.17;;;;;;;0.03;85.20;100504.82;1736737;81;21061;-75
2021/12/06 03:52:05;;;;;;;40.35;20.17;;;;;;;0.03;85.15;100514.13;1737380;80;21053;-75
2021/12/06 03:54:33;;;;;;;34.83;19.73;;;;;;;0.01;85.15;100511.55;1734474;81;21072;-75
2021/12/06 03:57:01;;;;;;;41.80;21.02;;;;;;;0.00;85.16;100511.96;1748355;81;20937;-76
2021/12/06 03:59:28;;;;;;;36.98;20.88;;;;;;;0.01;85.16;100514.09;1716243;82;21494;-75
2021/12/06 04:01:54;;;;;;;43.05;22.25;;;;;;;-0.02;85.14;100516.18;1737933;80;20866;-75
2021/12/06 04:04:21;;;;;;;38.05;18.82;;;;;;;-0.02;85.16;100522.94;1735521;80;21025;-75
2021/12/06 04:06:48;;;;;;;38.75;21.37;;;;;;;-0.02;85.22;100517.86;1746139;80;21099;-75
2021/12/06 04:09:15;;;;;;;39.20;21.07;;;;;;;0.01;85.22;100533.16;1714831;82;21029;-75
2021/12/06 04:11:42;;;;;;;40.52;22.22;;;;;;;0.02;85.21;100530.20;1730110;81;21082;-76
2021/12/06 04:14:09;;;;;;;41.58;22.98;;;;;;;0.02;85.25;100534.88;1733516;82;21555;-76
2021/12/06 04:16:36;;;;;;;43.40;21.75;;;;;;;0.04;85.25;100528.56;1740247;80;21763;-76
2021/12/06 04:19:05;;;;;;;39.55;21.42;;;;;;;0.05;85.27;100538.77;1731614;80;22322;-76
2021/12/06 04:21:32;;;;;;;44.93;22.25;;;;;;;0.07;85.26;100540.08;1741227;80;21023;-76
2021/12/06 04:24:03;;;;;;;40.35;22.37;;;;;;;0.09;85.29;100533.34;1723712;80;21036;-76
2021/12/06 04:26:29;;;;;;;50.78;24.05;;;;;;;0.10;85.26;100541.42;1732342;82;21551;-76
2021/12/06 04:28:59;;;;;;;38.80;21.02;;;;;;;0.12;85.27;100538.51;1745393;80;21104;-76
2021/12/06 04:31:30;;;;;;;39.78;21.82;;;;;;;0.13;85.28;100544.04;1735893;81;21053;-76
2021/12/06 04:33:57;;;;;;;42.90;22.65;;;;;;;0.15;85.28;100548.34;1742172;81;20896;-76
2021/12/06 04:36:24;;;;;;;37.70;21.35;;;;;;;0.17;85.29;100545.42;1741348;80;20929;-76
2021/12/06 04:38:50;;;;;;;44.30;22.02;;;;;;;0.19;85.30;100545.47;1717305;82;26976;-76
2021/12/06 04:41:17;;;;;;;46.13;21.80;;;;;;;0.20;85.29;100542.10;1738491;80;20859;-76
2021/12/06 04:43:46;;;;;;;39.70;20.95;;;;;;;0.22;85.32;100543.86;1747543;80;20914;-76
2021/12/06 04:46:12;;;;;;;38.48;20.65;;;;;;;0.23;85.31;100540.49;1736461;82;22984;-76
2021/12/06 04:48:40;;;;;;;42.58;21.37;;;;;;;0.24;85.29;100543.48;1733202;82;27995;-76
2021/12/06 04:51:15;;;;;;;39.80;20.23;;;;;;;0.26;85.32;100547.34;1742511;80;20946;-76
2021/12/06 04:53:42;;;;;;;39.83;20.80;;;;;;;0.25;85.29;100552.83;1737025;80;20884;-76
2021/12/06 04:56:32;;;;;;;34.43;19.98;;;;;;;0.25;85.26;100552.83;1735734;80;20949;-76
2021/12/06 04:59:13;;;;;;;36.85;20.27;;;;;;;0.25;85.29;100553.24;1741496;80;21004;-73
2021/12/06 05:01:42;;;;;;;36.40;21.15;;;;;;;0.26;85.32;100556.23;1730715;81;21544;-73
2021/12/06 05:04:13;;;;;;;37.30;20.45;;;;;;;0.25;85.33;100559.60;1725646;81;21250;-73
2021/12/06 05:06:44;;;;;;;43.70;21.25;;;;;;;0.23;85.30;100560.84;1741944;82;20957;-73
2021/12/06 05:09:18;;;;;;;38.38;20.90;;;;;;;0.24;85.33;100563.83;1743893;80;21104;-73
2021/12/06 05:11:46;;;;;;;42.05;21.15;;;;;;;0.23;85.33;100563.38;1730098;80;21116;-73
2021/12/06 05:14:13;;;;;;;39.63;21.07;;;;;;;0.23;85.34;100562.52;1738452;81;21045;-73
2021/12/06 05:16:41;;;;;;;40.33;22.00;;;;;;;0.23;85.35;100559.98;1744003;82;21052;-73
2021/12/06 05:19:07;;;;;;;;;;;;;;;0.24;85.37;100566.78;1729222;80;20948;-73
2021/12/06 05:21:37;;;;;;;43.70;22.52;;;;;;;0.23;85.39;100564.65;1739756;81;20144;-73
2021/12/06 05:24:08;;;;;;;41.05;21.85;;;;;;;0.22;85.34;100569.70;1747140;80;21684;-73
2021/12/06 05:26:36;;;;;;;40.40;19.77;;;;;;;0.22;85.37;100578.19;1744614;80;21006;-73
2021/12/06 05:29:06;;;;;;;42.53;22.67;;;;;;;0.21;85.39;100568.84;1746030;82;21033;-73
2021/12/06 05:31:38;;;;;;;36.77;20.95;;;;;;;0.21;85.40;100572.66;1746851;82;21053;-73
2021/12/06 05:34:07;;;;;;;44.40;23.35;;;;;;;0.23;85.43;100580.31;1717427;82;21105;-73
2021/12/06 05:36:29;;;;;;;45.88;21.57;;;;;;;0.22;85.42;100587.09;1725052;81;21628;-73
2021/12/06 05:38:57;;;;;;;38.65;21.52;;;;;;;0.22;85.41;100590.90;1661884;81;255810;-73
2021/12/06 05:41:23;;;;;;;39.33;21.48;;;;;;;0.22;85.42;100593.85;1708190;82;20929;-73
2021/12/06 05:43:50;;;;;;;41.05;21.62;;;;;;;0.22;85.42;100600.20;1720574;82;20993;-73
2021/12/06 05:46:17;;;;;;;41.45;20.45;;;;;;;0.23;85.45;100604.47;1710955;82;26511;-73
2021/12/06 05:48:43;;;;;;;;;;;;;;;0.22;85.45;100605.30;1711366;82;21123;-75
2021/12/06 05:51:09;;;;;;;;;;;;;;;0.23;85.50;100610.83;1719192;81;20368;-76
2021/12/06 05:53:36;;;;;;;39.33;18.27;;;;;;;0.24;85.55;100612.14;1710783;81;20343;-76
2021/12/06 05:56:03;;;;;;;41.88;20.35;;;;;;;0.25;85.53;100607.50;1719244;81;20924;-76
2021/12/06 05:58:32;;;;;;;41.42;20.90;;;;;;;0.26;85.49;100614.31;1750553;81;21048;-76
2021/12/06 06:00:59;;;;;;;41.53;21.52;;;;;;;0.27;85.49;100610.09;1729705;81;20891;-76
2021/12/06 06:03:26;;;;;;;41.60;21.05;;;;;;;0.26;85.48;100606.69;1743058;81;21351;-76
2021/12/06 06:05:52;;;;;;;43.63;22.13;;;;;;;0.27;85.50;100601.19;1733931;81;20983;-76
2021/12/06 06:08:19;;;;;;;48.52;23.95;;;;;;;0.27;85.49;100605.86;1734693;81;21080;-76
2021/12/06 06:10:47;;;;;;;61.77;32.30;;;;;;;0.29;85.51;100611.84;1752568;81;20967;-76
2021/12/06 06:13:14;;;;;;;46.53;24.02;;;;;;;0.29;85.49;100607.17;1763703;81;20992;-76
2021/12/06 06:15:40;;;;;;;49.60;23.77;;;;;;;0.29;85.47;100607.17;1736451;81;20932;-76
2021/12/06 06:18:09;;;;;;;45.03;21.70;;;;;;;0.28;85.47;100602.91;1703868;82;20893;-76
2021/12/06 06:20:46;;;;;;;36.73;20.15;;;;;;;0.29;85.49;100608.45;1727353;81;21432;-76
2021/12/06 06:23:12;;;;;;;43.68;21.15;;;;;;;0.28;85.50;100606.31;1740836;81;21260;-76
2021/12/06 06:25:39;;;;;;;39.63;21.12;;;;;;;0.30;85.54;100605.94;1739629;81;21309;-76
2021/12/06 06:28:06;;;;;;;;;;;;;;;0.31;85.54;100615.29;1728315;81;20957;-76
2021/12/06 06:30:40;;;;;;;35.83;18.98;;;;;;;0.31;85.55;100618.25;1743686;81;20104;-76
2021/12/06 06:33:06;;;;;;;37.17;20.32;;;;;;;0.30;85.51;100622.47;1706906;82;20952;-76
2021/12/06 06:35:33;;;;;;;58.60;33.18;;;;;;;0.31;85.53;100618.25;1728611;81;20923;-76
2021/12/06 06:38:00;;;;;;;36.30;20.50;;;;;;;0.30;85.52;100621.20;1746646;81;20876;-75
2021/12/06 06:40:27;;;;;;;35.70;18.48;;;;;;;0.30;85.51;100618.66;1722512;81;20906;-75
2021/12/06 06:42:53;;;;;;;30.50;17.98;;;;;;;0.31;85.52;100620.79;1723777;81;20950;-75
2021/12/06 06:45:21;;;;;;;33.40;17.42;;;;;;;0.33;85.54;100626.77;1732094;81;20872;-75
2021/12/06 06:47:48;;;;;;;37.53;20.52;;;;;;;0.33;85.55;100625.09;1728541;81;21055;-75
2021/12/06 06:50:19;;;;;;;33.67;18.48;;;;;;;0.36;85.55;100627.27;1743559;81;20913;-75
2021/12/06 06:52:46;;;;;;;31.77;17.32;;;;;;;0.36;85.51;100634.48;1749175;81;20880;-76
2021/12/06 06:55:13;;;;;;;31.45;18.65;;;;;;;0.36;85.49;100633.63;1731365;81;20974;-76
2021/12/06 06:57:41;;;;;;;34.23;18.52;;;;;;;0.35;85.48;100639.12;1707636;82;20959;-76
2021/12/06 07:00:11;;;;;;;29.27;16.50;;;;;;;0.36;85.50;100645.92;1708885;82;21103;-76
2021/12/06 07:02:38;;;;;;;25.30;15.95;;;;;;;0.37;85.49;100650.19;1704270;82;21472;-76
2021/12/06 07:05:06;;;;;;;41.83;21.45;;;;;;;0.37;85.51;100646.38;1700511;81;20905;-76
2021/12/06 07:07:32;;;;;;;30.30;17.40;;;;;;;0.38;85.51;100648.51;1686055;83;20999;-76
2021/12/06 07:09:59;;;;;;;27.82;15.72;;;;;;;0.38;85.48;100643.02;1681833;82;21063;-76
2021/12/06 07:12:26;;;;;;;;;;;;;;;0.39;85.52;100646.00;1670618;84;21118;-76
2021/12/06 07:14:52;;;;;;;38.50;20.35;;;;;;;0.40;85.55;100646.86;1639271;86;20713;-76
2021/12/06 07:17:18;;;;;;;;;;;;;;;0.40;85.50;100648.14;1687480;84;21034;-75
2021/12/06 07:19:45;;;;;;;35.98;20.15;;;;;;;0.39;85.50;100657.45;1672461;84;20238;-75
2021/12/06 07:22:11;;;;;;;66.15;31.23;;;;;;;0.40;85.51;100656.63;1653358;84;21113;-75
2021/12/06 07:24:39;;;;;;;75.40;34.00;;;;;;;0.41;85.51;100649.86;1684658;84;21139;-76
2021/12/06 07:27:06;;;;;;;63.33;29.32;;;;;;;0.42;85.50;100660.48;1671709;84;21073;-76
2021/12/06 07:29:35;;;;;;;54.18;28.65;;;;;;;0.42;85.49;100658.80;1637002;85;34323;-76
2021/12/06 07:32:04;;;;;;;30.95;18.60;;;;;;;0.43;85.52;100657.98;1657501;84;21113;-76
2021/12/06 07:34:30;;;;;;;31.17;18.75;;;;;;;0.44;85.49;100662.25;1649211;84;21426;-76
2021/12/06 07:36:57;;;;;;;28.10;17.23;;;;;;;0.46;85.51;100665.69;1667248;85;21880;-76
2021/12/06 07:39:23;;;;;;;28.85;17.37;;;;;;;0.49;85.50;100666.18;1659690;85;20961;-76
2021/12/06 07:41:50;;;;;;;30.75;17.02;;;;;;;0.50;85.50;100668.76;1655650;84;21946;-76
2021/12/06 07:44:16;;;;;;;;;;;;;;;0.52;85.50;100672.17;1670467;84;20985;-76
2021/12/06 07:46:42;;;;;;;;;;;;;;;0.54;85.49;100676.89;1707166;82;20164;-76
2021/12/06 07:49:08;;;;;;;;;;;;;;;0.56;85.53;100675.24;1715975;82;20204;-76
2021/12/06 07:51:34;;;;;;;24.12;14.80;;;;;;;0.58;85.50;100673.60;1725137;82;20777;-76
2021/12/06 07:54:02;;;;;;;25.75;15.38;;;;;;;0.58;85.49;100671.05;1725788;82;21560;-76
2021/12/06 07:56:28;;;;;;;25.27;15.78;;;;;;;0.60;85.49;100682.13;1699047;82;21027;-76
2021/12/06 07:58:55;;;;;;;25.72;15.60;;;;;;;0.60;85.47;100684.67;1677600;84;21067;-76
2021/12/06 08:01:22;;;;;;;25.48;15.35;;;;;;;0.64;85.47;100679.25;1624517;86;21297;-76
2021/12/06 08:03:49;;;;;;;24.40;15.55;;;;;;;0.62;85.43;100674.13;1634971;86;21291;-76
2021/12/06 08:06:15;;;;;;;36.83;20.48;;;;;;;0.63;85.46;100680.08;1630735;86;20953;-75
2021/12/06 08:08:43;;;;;;;52.78;26.97;;;;;;;0.64;85.48;100682.66;1626882;86;21788;-76
2021/12/06 08:11:14;;;;;;;63.48;33.60;;;;;;;0.67;85.51;100684.42;1632581;86;20901;-75
2021/12/06 08:13:44;;;;;;;47.67;27.52;;;;;;;0.69;85.50;100694.23;1602873;88;20948;-75
2021/12/06 08:16:20;;;;;;;35.60;18.35;;;;;;;0.69;85.45;100689.14;1603717;87;20954;-75
2021/12/06 08:18:52;;;;;;;24.70;17.57;;;;;;;0.70;85.45;100691.27;1679398;84;20924;-75
2021/12/06 08:21:21;;;;;;;34.00;18.02;;;;;;;0.71;85.45;100697.67;1682926;84;20952;-75
2021/12/06 08:23:49;;;;;;;32.75;19.02;;;;;;;0.71;85.46;100697.67;1680318;84;21434;-75
2021/12/06 08:26:19;;;;;;;41.65;23.00;;;;;;;0.72;85.40;100699.39;1626648;86;21431;-75
2021/12/06 08:28:46;;;;;;;35.30;22.48;;;;;;;0.74;85.45;100705.38;1624168;86;21390;-75
2021/12/06 08:31:18;;;;;;;51.80;27.05;;;;;;;0.75;85.46;100703.29;1632967;86;20990;-75
2021/12/06 08:33:47;;;;;;;52.45;24.55;;;;;;;0.75;85.45;100703.29;1687623;84;21455;-75
2021/12/06 08:36:14;;;;;;;45.90;22.75;;;;;;;0.76;85.46;100703.73;1685025;84;20892;-75
2021/12/06 08:38:41;;;;;;;36.63;20.62;;;;;;;0.78;85.44;100710.14;1697138;84;21028;-75
2021/12/06 08:41:14;;;;;;;39.75;20.50;;;;;;;0.76;85.38;100707.55;1685976;84;313783;-75
2021/12/06 08:43:43;;;;;;;41.42;22.25;;;;;;;0.75;85.39;100716.02;1681775;84;20928;-75
2021/12/06 08:46:15;;;;;;;37.30;20.05;;;;;;;0.75;85.40;100722.38;1628405;86;20965;-75
2021/12/06 08:48:43;;;;;;;31.50;17.92;;;;;;;0.75;85.40;100719.83;1666690;84;20975;-75
2021/12/06 08:51:15;;;;;;;36.83;20.37;;;;;;;0.74;85.37;100730.83;1685509;84;20963;-75
2021/12/06 08:53:42;;;;;;;45.12;22.32;;;;;;;0.71;85.30;100732.03;1660332;84;20971;-75
2021/12/06 08:56:09;;;;;;;41.68;21.75;;;;;;;0.67;85.33;100734.05;1683946;82;20949;-75
2021/12/06 08:58:36;;;;;;;39.08;21.00;;;;;;;0.65;85.35;100734.00;1702573;82;21553;-75
2021/12/06 09:01:03;;;;;;;;;;;;;;;0.66;85.41;100734.45;1712916;82;21833;-75
2021/12/06 09:03:30;;;;;;;57.38;27.02;;;;;;;0.68;85.44;100738.72;1696189;82;20095;-75
2021/12/06 09:05:58;;;;;;;82.90;31.17;;;;;;;0.69;85.46;100736.62;1712894;82;21850;-75
2021/12/06 09:08:24;;;;;;;55.95;25.05;;;;;;;0.71;85.49;100745.16;1643497;82;703786;-75
2021/12/06 09:10:53;;;;;;;46.90;22.27;;;;;;;0.72;85.49;100743.06;1693911;82;20882;-75
2021/12/06 09:13:22;;;;;;;81.95;31.73;;;;;;;0.72;85.44;100744.34;1709478;82;21506;-75
2021/12/06 09:15:51;;;;;;;51.92;24.37;;;;;;;0.71;85.45;100744.75;1691520;82;21505;-75
2021/12/06 09:18:19;;;;;;;45.95;20.95;;;;;;;0.71;85.43;100754.93;1725741;82;21454;-75
2021/12/06 09:20:49;;;;;;;54.53;23.05;;;;;;;0.71;85.41;100752.80;1709590;82;21619;-75
2021/12/06 09:23:17;;;;;;;121.75;34.55;;;;;;;0.71;85.42;100748.56;1709277;82;21449;-75
2021/12/06 09:25:46;;;;;;;91.60;28.83;;;;;;;0.73;85.43;100753.70;1698907;82;21071;-75
2021/12/06 09:28:15;;;;;;;106.07;33.67;;;;;;;0.71;85.41;100761.30;1685998;82;21481;-75
2021/12/06 09:30:43;;;;;;;117.05;37.60;;;;;;;0.72;85.42;100759.61;1717486;82;20944;-75
2021/12/06 09:33:14;;;;;;;83.80;31.15;;;;;;;0.73;85.44;100759.64;1718472;82;21400;-75
2021/12/06 09:35:44;;;;;;;94.95;32.80;;;;;;;0.73;85.42;100767.28;1692743;82;21975;-75
2021/12/06 09:38:15;;;;;;;51.20;22.42;;;;;;;0.75;85.45;100757.14;1715634;82;21511;-75
2021/12/06 09:40:45;;;;;;;58.87;25.35;;;;;;;0.74;85.41;100761.38;1715780;82;21444;-75
2021/12/06 09:43:14;;;;;;;84.22;35.35;;;;;;;0.73;85.37;100758.38;1689364;84;21457;-75
2021/12/06 09:45:43;;;;;;;79.85;34.00;;;;;;;0.75;85.40;100768.59;1678506;82;21454;-75
2021/12/06 09:48:12;;;;;;;53.98;24.90;;;;;;;0.75;85.39;100764.78;1714568;82;20956;-75
2021/12/06 09:50:43;;;;;;;48.63;22.37;;;;;;;0.76;85.42;100762.69;1720403;82;21481;-75
2021/12/06 09:53:14;;;;;;;48.95;22.40;;;;;;;0.75;85.43;100764.37;1724480;82;21391;-75
2021/12/06 09:55:43;;;;;;;38.25;19.25;;;;;;;0.76;85.43;100769.05;1720462;82;21481;-75
2021/12/06 09:58:10;;;;;;;41.73;20.02;;;;;;;0.76;85.40;100768.64;1707382;82;21314;-75
2021/12/06 10:00:42;;;;;;;36.42;18.48;;;;;;;0.75;85.38;100765.64;1712938;82;21512;-75
2021/12/06 10:03:11;;;;;;;34.65;18.77;;;;;;;0.74;85.36;100763.05;1704978;82;21378;-75
2021/12/06 10:05:38;;;;;;;35.15;18.90;;;;;;;0.74;85.37;100759.23;1705640;82;21452;-74
2021/12/06 10:08:04;;;;;;;56.50;25.45;;;;;;;0.73;85.36;100758.79;1714309;82;21486;-74
2021/12/06 10:10:32;;;;;;;37.67;19.65;;;;;;;0.74;85.37;100763.05;1690403;82;21627;-74
2021/12/06 10:12:59;;;;;;;40.80;19.45;;;;;;;0.72;85.30;100766.83;1709557;82;21498;-74
2021/12/06 10:15:28;;;;;;;37.25;18.32;;;;;;;0.71;85.35;100760.02;1702979;82;21868;-75
2021/12/06 10:17:58;;;;;;;25.88;16.10;;;;;;;0.72;85.35;100759.61;1711822;82;21061;-75
2021/12/06 10:20:27;;;;;;;28.83;14.23;;;;;;;0.70;85.29;100763.38;1708236;82;21554;-75
2021/12/06 10:22:57;;;;;;;17.92;10.68;;;;;;;0.68;85.24;100768.84;1727086;82;20903;-75
2021/12/06 10:25:34;;;;;;;48.83;20.75;;;;;;;0.66;85.19;100770.48;1714399;82;21572;-75
2021/12/06 10:28:04;;;;;;;32.23;16.60;;;;;;;0.66;85.26;100773.89;1692997;82;21619;-75
2021/12/06 10:30:32;;;;;;;30.05;15.30;;;;;;;0.65;85.25;100778.53;1710688;82;21417;-75
2021/12/06 10:33:15;;;;;;;23.22;13.75;;;;;;;0.65;85.22;100770.90;1705386;82;20931;-75
2021/12/06 10:35:45;;;;;;;22.20;12.80;;;;;;;0.65;85.19;100770.90;1709505;82;20930;-75
2021/12/06 10:38:23;;;;;;;33.98;17.02;;;;;;;0.66;85.25;100767.53;1711139;82;20909;-75
2021/12/06 10:40:50;;;;;;;33.30;17.15;;;;;;;0.68;85.28;100770.12;1708974;82;20960;-75
2021/12/06 10:43:17;;;;;;;31.48;15.72;;;;;;;0.71;85.29;100758.75;1692019;82;20866;-75
2021/12/06 10:45:47;;;;;;;;;;;;;;;0.72;85.30;100763.02;1726877;82;20945;-75
2021/12/06 10:48:30;;;;;;;21.15;13.30;;;;;;;0.73;85.26;100756.23;1709668;82;20085;-75
2021/12/06 10:51:01;;;;;;;27.95;13.90;;;;;;;0.71;85.19;100757.47;1720622;82;20901;-75
2021/12/06 10:53:35;;;;;;;45.33;18.12;;;;;;;0.72;85.24;100755.37;1665524;84;20909;-75
2021/12/06 10:56:17;;;;;;;20.70;12.15;;;;;;;0.75;85.29;100754.59;1696106;84;20882;-74
2021/12/06 10:58:44;;;;;;;16.52;10.70;;;;;;;0.78;85.25;100753.00;1717919;82;20897;-74
2021/12/06 11:01:14;;;;;;;22.50;13.20;;;;;;;0.78;85.21;100754.27;1703074;82;20908;-74
2021/12/06 11:03:48;;;;;;;26.57;14.23;;;;;;;0.80;85.24;100751.77;1724233;82;20937;-74
2021/12/06 11:06:24;;;;;;;41.90;20.92;;;;;;;0.83;85.29;100753.97;1727032;81;20881;-74
2021/12/06 11:08:54;;;;;;;41.68;22.55;;;;;;;0.88;85.33;100756.64;1717148;81;20949;-74
2021/12/06 11:11:28;;;;;;;26.27;15.58;;;;;;;0.93;85.35;100762.70;1719179;81;20936;-75
2021/12/06 11:14:05;;;;;;;45.70;26.27;;;;;;;0.95;85.32;100763.20;1721701;81;20901;-74
2021/12/06 11:16:37;;;;;;;27.40;17.35;;;;;;;0.95;85.24;100767.02;1719746;81;20901;-74
2021/12/06 11:19:08;;;;;;;18.15;12.82;;;;;;;0.94;85.22;100759.34;1685898;82;20939;-74
2021/12/06 11:21:46;;;;;;;22.62;14.03;;;;;;;0.95;85.20;100763.61;1681583;83;20972;-74
2021/12/06 11:24:29;;;;;;;20.32;13.28;;;;;;;0.95;85.23;100763.61;1742399;82;21100;-74
2021/12/06 11:27:25;;;;;;;20.77;12.65;;;;;;;0.95;85.26;100758.10;1719890;81;21163;-74
2021/12/06 11:30:03;;;;;;;19.85;13.50;;;;;;;0.95;85.22;100756.83;1729314;82;20870;-74
2021/12/06 11:32:46;;;;;;;22.90;13.30;;;;;;;0.97;85.25;100757.73;1725804;81;20898;-75
2021/12/06 11:35:20;;;;;;;26.40;17.55;;;;;;;0.97;85.22;100760.27;1725055;82;20869;-74
2021/12/06 11:37:53;;;;;;;16.55;11.73;;;;;;;0.96;85.17;100758.97;1706920;82;20908;-74
2021/12/06 11:40:28;;;;;;;13.20;10.20;;;;;;;0.95;85.17;100767.02;1713378;81;20944;-74
2021/12/06 11:43:05;;;;;;;18.57;11.88;;;;;;;0.93;85.15;100771.20;1733942;81;21083;-74
2021/12/06 11:45:50;;;;;;;16.42;11.15;;;;;;;0.92;85.16;100763.53;1736380;82;21032;-74